Time;durP1;ratioP1;P1;durP2;ratioP2;P2;SDS_P1;SDS_P2;PMS_P1;PMS_P2;Temp;Humidity;BMP_temperature;BMP_pressure;BME280_temperature;BME280_humidity;BME280_pressure;Samples;Min_cycle;Max_cycle;Signal;HPM_P1;HPM_P2
2023/10/26 00:01:14;;;;;;;17.75;12.57;;;10.10;99.90;;;;;;5075014;28;20098;-71
2023/10/26 00:03:40;;;;;;;19.50;12.52;;;10.00;99.90;;;;;;5057323;28;20090;-72
2023/10/26 00:06:06;;;;;;;15.65;12.57;;;10.10;99.90;;;;;;5067958;28;20052;-72
2023/10/26 00:08:31;;;;;;;17.45;12.63;;;10.00;99.90;;;;;;5074743;28;20161;-72
2023/10/26 00:11:02;;;;;;;17.67;12.40;;;10.00;99.90;;;;;;5073983;28;20048;-72
2023/10/26 00:13:27;;;;;;;16.40;12.02;;;10.00;99.90;;;;;;5070058;28;20041;-72
2023/10/26 00:15:53;;;;;;;17.77;12.15;;;10.00;99.90;;;;;;5073478;28;20394;-72
2023/10/26 00:18:20;;;;;;;18.92;13.07;;;10.00;99.90;;;;;;5074226;28;20139;-71
2023/10/26 00:20:46;;;;;;;15.13;11.73;;;10.00;99.90;;;;;;5074421;28;20057;-72
2023/10/26 00:23:12;;;;;;;17.88;12.65;;;10.00;99.90;;;;;;5072697;28;20577;-73
2023/10/26 00:25:38;;;;;;;19.60;11.82;;;10.00;99.90;;;;;;5074147;28;20137;-72
2023/10/26 00:28:04;;;;;;;18.27;12.45;;;10.00;99.90;;;;;;5075124;28;20044;-71
2023/10/26 00:30:29;;;;;;;20.20;13.13;;;10.00;99.90;;;;;;5095107;28;20040;-70
2023/10/26 00:32:55;;;;;;;20.20;12.60;;;10.00;99.90;;;;;;5094310;28;20408;-75
2023/10/26 00:35:21;;;;;;;16.00;12.45;;;10.00;99.90;;;;;;5091260;28;20393;-70
2023/10/26 00:37:46;;;;;;;18.08;12.73;;;10.00;99.90;;;;;;5084538;28;20114;-71
2023/10/26 00:40:13;;;;;;;21.25;13.73;;;10.00;99.90;;;;;;5092517;28;20494;-70
2023/10/26 00:42:39;;;;;;;18.58;13.13;;;9.90;99.90;;;;;;5093622;28;20043;-70
2023/10/26 00:45:05;;;;;;;21.95;15.98;;;9.90;99.90;;;;;;5089152;28;20040;-70
2023/10/26 00:47:31;;;;;;;30.25;20.25;;;10.00;99.90;;;;;;5081623;28;20047;-71
2023/10/26 00:49:59;;;;;;;26.08;20.20;;;10.00;99.90;;;;;;5078888;28;20045;-70
2023/10/26 00:52:25;;;;;;;28.05;20.90;;;10.00;99.90;;;;;;5094474;28;20098;-70
2023/10/26 00:54:52;;;;;;;34.15;21.45;;;10.00;99.90;;;;;;5094403;28;20051;-71
2023/10/26 00:57:22;;;;;;;29.20;21.67;;;10.00;99.90;;;;;;5076815;28;20053;-71
2023/10/26 00:59:48;;;;;;;31.45;22.58;;;10.00;99.90;;;;;;5081759;28;20048;-70
2023/10/26 01:02:15;;;;;;;30.77;22.80;;;10.00;99.90;;;;;;5086353;28;20044;-72
2023/10/26 01:04:41;;;;;;;34.50;25.20;;;10.00;99.90;;;;;;5093250;28;20052;-70
2023/10/26 01:07:07;;;;;;;33.22;25.17;;;10.00;99.90;;;;;;5076392;28;20051;-70
2023/10/26 01:09:33;;;;;;;36.85;25.98;;;10.00;99.90;;;;;;5091425;28;20048;-70
2023/10/26 01:11:58;;;;;;;37.13;26.00;;;10.10;99.90;;;;;;5077538;28;20037;-71
2023/10/26 01:14:24;;;;;;;45.45;27.67;;;10.00;99.90;;;;;;5078743;28;20048;-72
2023/10/26 01:16:50;;;;;;;39.35;26.75;;;10.10;99.90;;;;;;5079910;28;20044;-70
2023/10/26 01:19:16;;;;;;;39.55;26.55;;;10.10;99.90;;;;;;5093597;28;20051;-70
2023/10/26 01:21:52;;;;;;;38.45;27.23;;;10.10;99.90;;;;;;5084269;28;20131;-70
2023/10/26 01:24:18;;;;;;;37.85;28.13;;;10.00;99.90;;;;;;5093502;28;20044;-70
2023/10/26 01:26:44;;;;;;;41.05;30.10;;;10.00;99.90;;;;;;5084904;28;20087;-70
2023/10/26 01:29:10;;;;;;;40.13;28.30;;;10.00;99.90;;;;;;5077289;28;20115;-70
2023/10/26 01:31:36;;;;;;;44.60;30.17;;;10.00;99.90;;;;;;5086649;28;20061;-70
2023/10/26 01:34:01;;;;;;;39.58;28.13;;;10.00;99.90;;;;;;5090376;28;20079;-72
2023/10/26 01:36:27;;;;;;;42.38;30.45;;;10.00;99.90;;;;;;5087736;28;20040;-70
2023/10/26 01:38:55;;;;;;;37.45;29.40;;;10.10;99.90;;;;;;5078886;28;20043;-70
2023/10/26 01:41:21;;;;;;;41.42;29.15;;;10.00;99.90;;;;;;5070492;28;20060;-70
2023/10/26 01:43:47;;;;;;;40.13;29.52;;;10.00;99.90;;;;;;5052410;28;20136;-71
2023/10/26 01:46:13;;;;;;;43.85;28.67;;;10.00;99.90;;;;;;5064560;28;20102;-71
2023/10/26 01:48:39;;;;;;;38.38;28.88;;;10.00;99.90;;;;;;5071027;28;20044;-70
2023/10/26 01:51:05;;;;;;;41.38;29.85;;;10.00;99.90;;;;;;5072628;28;20080;-72
2023/10/26 01:53:31;;;;;;;45.90;29.55;;;10.10;99.90;;;;;;5072596;28;20037;-71
2023/10/26 01:55:56;;;;;;;45.97;30.80;;;10.10;99.90;;;;;;5072822;28;20048;-71
2023/10/26 01:58:22;;;;;;;46.60;31.55;;;10.10;99.90;;;;;;5071497;28;20123;-71
2023/10/26 02:00:48;;;;;;;39.22;29.58;;;10.10;99.90;;;;;;5060592;28;20441;-71
2023/10/26 02:03:15;;;;;;;40.67;30.55;;;10.10;99.90;;;;;;5070878;28;20151;-71
2023/10/26 02:05:41;;;;;;;40.65;29.02;;;10.10;99.90;;;;;;5072973;28;20094;-72
2023/10/26 02:08:07;;;;;;;51.65;31.48;;;10.10;99.90;;;;;;5072575;28;20087;-72
2023/10/26 02:10:33;;;;;;;47.17;30.90;;;10.10;99.90;;;;;;5072025;28;20054;-72
2023/10/26 02:12:59;;;;;;;40.05;28.60;;;10.10;99.90;;;;;;5067706;28;20052;-72
2023/10/26 02:15:25;;;;;;;41.90;29.45;;;10.10;99.90;;;;;;5070533;28;20402;-71
2023/10/26 02:17:51;;;;;;;42.83;29.65;;;10.10;99.90;;;;;;5067760;28;20045;-71
2023/10/26 02:20:16;;;;;;;40.85;29.92;;;10.10;99.90;;;;;;5064020;28;20063;-71
2023/10/26 02:22:42;;;;;;;42.75;29.08;;;10.10;99.90;;;;;;5068078;28;20486;-71
2023/10/26 02:25:08;;;;;;;38.15;28.70;;;10.00;99.90;;;;;;5071936;28;20469;-71
2023/10/26 02:27:34;;;;;;;39.45;29.33;;;10.00;99.90;;;;;;5063076;28;20056;-71
2023/10/26 02:30:00;;;;;;;40.40;28.70;;;10.00;99.90;;;;;;5040237;28;20425;-72
2023/10/26 02:32:26;;;;;;;47.33;29.23;;;10.00;99.90;;;;;;5051942;28;20052;-71
2023/10/26 02:34:52;;;;;;;46.47;29.55;;;10.00;99.90;;;;;;5062445;28;20127;-71
2023/10/26 02:37:19;;;;;;;38.17;28.27;;;10.00;99.90;;;;;;5066965;28;20136;-71
2023/10/26 02:39:45;;;;;;;42.03;27.60;;;10.00;99.90;;;;;;5053169;28;20079;-71
2023/10/26 02:42:11;;;;;;;41.85;29.13;;;10.00;99.90;;;;;;5053631;28;20049;-72
2023/10/26 02:44:37;;;;;;;41.65;29.52;;;10.00;99.90;;;;;;5060305;28;20039;-71
2023/10/26 02:47:03;;;;;;;37.08;27.63;;;10.00;99.90;;;;;;5056662;28;20098;-71
2023/10/26 02:49:30;;;;;;;40.03;28.70;;;10.00;99.90;;;;;;5051584;28;20052;-71
2023/10/26 02:51:57;;;;;;;41.97;27.80;;;10.00;99.90;;;;;;5052504;28;20498;-71
2023/10/26 02:54:27;;;;;;;38.80;27.92;;;10.00;99.90;;;;;;5052601;28;20442;-71
2023/10/26 02:56:53;;;;;;;41.50;28.42;;;10.00;99.90;;;;;;5060339;28;20048;-71
2023/10/26 02:59:18;;;;;;;38.67;26.60;;;10.00;99.90;;;;;;5051448;28;20494;-71
2023/10/26 03:01:44;;;;;;;35.95;26.33;;;10.00;99.90;;;;;;5059764;28;20444;-71
2023/10/26 03:04:10;;;;;;;40.33;28.40;;;10.00;99.90;;;;;;5056323;28;20049;-71
2023/10/26 03:06:39;;;;;;;37.92;27.55;;;9.90;99.90;;;;;;5042860;28;20045;-71
2023/10/26 03:09:08;;;;;;;38.33;26.98;;;9.90;99.90;;;;;;5062512;28;20048;-71
2023/10/26 03:11:34;;;;;;;39.67;28.00;;;9.90;99.90;;;;;;5053347;28;20071;-71
2023/10/26 03:14:00;;;;;;;39.88;28.40;;;9.90;99.90;;;;;;5053983;28;20037;-70
2023/10/26 03:16:26;;;;;;;35.85;26.83;;;9.90;99.90;;;;;;5059053;28;20056;-71
2023/10/26 03:18:52;;;;;;;41.08;27.63;;;9.90;99.90;;;;;;5050951;28;20048;-71
2023/10/26 03:21:20;;;;;;;41.40;28.98;;;9.90;99.90;;;;;;5055423;28;20406;-73
2023/10/26 03:23:52;;;;;;;41.40;28.38;;;9.90;99.90;;;;;;5041933;28;20135;-71
2023/10/26 03:26:19;;;;;;;39.50;29.05;;;9.90;99.90;;;;;;5056519;28;20119;-73
2023/10/26 03:28:45;;;;;;;46.15;28.42;;;9.90;99.90;;;;;;5051808;28;20041;-71
2023/10/26 03:31:11;;;;;;;39.08;28.52;;;9.80;99.90;;;;;;5050685;28;20115;-71
2023/10/26 03:33:37;;;;;;;42.15;28.40;;;9.90;99.90;;;;;;5062118;28;20120;-71
2023/10/26 03:36:03;;;;;;;41.65;29.23;;;9.90;99.90;;;;;;5062297;28;20406;-71
2023/10/26 03:38:29;;;;;;;42.65;29.50;;;9.90;99.90;;;;;;5052625;28;20064;-71
2023/10/26 03:40:55;;;;;;;39.42;29.50;;;9.90;99.90;;;;;;5054746;28;20044;-71
2023/10/26 03:43:21;;;;;;;38.35;29.42;;;9.90;99.90;;;;;;5053547;28;20052;-73
2023/10/26 03:45:46;;;;;;;35.67;28.48;;;9.80;99.90;;;;;;5056650;28;20481;-71
2023/10/26 03:48:12;;;;;;;37.22;28.77;;;9.80;99.90;;;;;;5058612;28;20056;-71
2023/10/26 03:50:38;;;;;;;40.40;29.35;;;9.80;99.90;;;;;;5036098;28;20051;-71
2023/10/26 03:53:04;;;;;;;42.65;30.83;;;9.80;99.90;;;;;;5053067;28;20119;-71
2023/10/26 03:55:29;;;;;;;42.42;29.67;;;9.80;99.90;;;;;;5066438;28;20062;-72
2023/10/26 03:57:55;;;;;;;41.58;31.25;;;9.80;99.90;;;;;;5052208;28;20037;-71
2023/10/26 04:00:21;;;;;;;45.80;29.17;;;9.80;99.90;;;;;;5059634;28;20053;-71
2023/10/26 04:02:47;;;;;;;41.72;29.75;;;9.80;99.90;;;;;;5064002;28;20056;-71
2023/10/26 04:05:15;;;;;;;41.97;29.33;;;9.80;99.90;;;;;;5064949;28;20082;-71
2023/10/26 04:07:42;;;;;;;42.78;29.45;;;9.80;99.90;;;;;;5065950;28;20052;-72
2023/10/26 04:10:09;;;;;;;45.28;30.70;;;9.70;99.90;;;;;;5068540;28;20133;-71
2023/10/26 04:12:35;;;;;;;40.47;29.48;;;9.70;99.90;;;;;;5061580;28;20047;-71
2023/10/26 04:15:04;;;;;;;42.70;29.67;;;9.70;99.90;;;;;;5055855;28;20076;-71
2023/10/26 04:17:30;;;;;;;47.25;30.77;;;9.70;99.90;;;;;;5051120;28;20135;-71
2023/10/26 04:19:57;;;;;;;38.95;30.02;;;9.70;99.90;;;;;;5051236;28;20125;-71
2023/10/26 04:22:23;;;;;;;43.40;30.52;;;9.70;99.90;;;;;;5059016;28;20060;-72
2023/10/26 04:24:49;;;;;;;42.55;29.92;;;9.70;99.90;;;;;;5071778;28;20044;-71
2023/10/26 04:27:14;;;;;;;45.50;29.80;;;9.70;99.90;;;;;;5062448;28;20128;-71
2023/10/26 04:29:40;;;;;;;44.90;31.00;;;9.70;99.90;;;;;;5053073;28;20069;-72
2023/10/26 04:32:07;;;;;;;38.30;29.42;;;9.70;99.90;;;;;;5057088;28;20053;-71
2023/10/26 04:34:33;;;;;;;41.28;30.45;;;9.70;99.90;;;;;;5072880;28;20045;-71
2023/10/26 04:36:58;;;;;;;39.22;29.25;;;9.70;99.90;;;;;;5065642;28;20082;-71
2023/10/26 04:39:24;;;;;;;46.05;30.40;;;9.70;99.90;;;;;;5053426;28;20051;-71
2023/10/26 04:41:50;;;;;;;40.78;28.50;;;9.70;99.90;;;;;;5053909;28;20054;-71
2023/10/26 04:44:17;;;;;;;41.22;29.33;;;9.70;99.90;;;;;;5025557;28;20467;-71
2023/10/26 04:46:43;;;;;;;42.20;29.88;;;9.70;99.90;;;;;;5061711;28;20056;-71
2023/10/26 04:49:08;;;;;;;43.30;29.55;;;9.70;99.90;;;;;;5059339;28;20418;-71
2023/10/26 04:51:34;;;;;;;45.90;28.83;;;9.70;99.90;;;;;;5053836;28;20493;-72
2023/10/26 04:54:00;;;;;;;46.10;29.02;;;9.70;99.90;;;;;;5071032;28;20044;-71
2023/10/26 04:56:25;;;;;;;40.08;28.63;;;9.70;99.90;;;;;;5067850;28;20048;-71
2023/10/26 04:58:51;;;;;;;39.45;28.00;;;9.60;99.90;;;;;;5056718;28;20114;-71
2023/10/26 05:01:17;;;;;;;44.53;28.58;;;9.60;99.90;;;;;;5059203;28;20497;-71
2023/10/26 05:03:43;;;;;;;43.10;29.70;;;9.60;99.90;;;;;;5056416;28;20048;-71
2023/10/26 05:06:08;;;;;;;37.17;26.73;;;9.60;99.90;;;;;;5057689;28;20072;-70
2023/10/26 05:08:34;;;;;;;40.05;26.27;;;9.60;99.90;;;;;;5069891;28;20047;-73
2023/10/26 05:11:00;;;;;;;42.15;28.17;;;9.50;99.90;;;;;;5069335;28;20048;-71
2023/10/26 05:13:26;;;;;;;36.03;27.30;;;9.50;99.90;;;;;;5070299;28;20044;-71
2023/10/26 05:15:52;;;;;;;36.90;25.73;;;9.50;99.90;;;;;;5055957;28;20057;-71
2023/10/26 05:18:18;;;;;;;37.22;26.05;;;9.50;99.90;;;;;;5038425;28;20049;-72
2023/10/26 05:20:48;;;;;;;41.95;26.23;;;9.50;99.90;;;;;;5053779;28;20106;-72
2023/10/26 05:23:15;;;;;;;35.35;26.17;;;9.40;99.90;;;;;;5065262;28;20052;-72
2023/10/26 05:25:41;;;;;;;39.97;26.48;;;9.50;99.90;;;;;;5072597;28;20063;-72
2023/10/26 05:28:06;;;;;;;40.03;25.80;;;9.40;99.90;;;;;;5053770;28;20131;-72
2023/10/26 05:30:32;;;;;;;40.88;27.02;;;9.50;99.90;;;;;;5058355;28;20047;-71
2023/10/26 05:32:58;;;;;;;40.15;26.60;;;9.50;99.90;;;;;;5056942;28;20044;-72
2023/10/26 05:35:24;;;;;;;39.60;27.52;;;9.50;99.90;;;;;;5053209;28;20086;-72
2023/10/26 05:37:49;;;;;;;42.90;28.92;;;9.50;99.90;;;;;;5055775;28;20033;-72
2023/10/26 05:40:15;;;;;;;40.55;27.70;;;9.50;99.90;;;;;;5067794;28;20072;-72
2023/10/26 05:42:41;;;;;;;42.28;27.95;;;9.50;99.90;;;;;;5064891;28;20052;-73
2023/10/26 05:45:07;;;;;;;41.50;27.55;;;9.50;99.90;;;;;;5053413;28;20486;-72
2023/10/26 05:47:33;;;;;;;43.05;28.00;;;9.50;99.90;;;;;;5051333;28;20486;-72
2023/10/26 05:49:58;;;;;;;43.72;28.75;;;9.50;99.90;;;;;;5056146;28;20033;-72
2023/10/26 05:52:24;;;;;;;46.85;28.92;;;9.50;99.90;;;;;;5066676;28;20041;-71
2023/10/26 05:54:52;;;;;;;47.78;28.48;;;9.50;99.90;;;;;;5055157;28;20037;-71
2023/10/26 05:57:18;;;;;;;42.55;27.88;;;9.40;99.90;;;;;;5052932;28;20049;-71
2023/10/26 05:59:44;;;;;;;40.45;27.35;;;9.40;99.90;;;;;;5052423;28;20051;-72
2023/10/26 06:02:09;;;;;;;42.88;28.08;;;9.40;99.90;;;;;;5056955;28;20483;-72
2023/10/26 06:04:35;;;;;;;42.40;28.08;;;9.40;99.90;;;;;;5067224;28;20116;-71
2023/10/26 06:07:01;;;;;;;42.30;28.10;;;9.40;99.90;;;;;;5058488;28;20647;-72
2023/10/26 06:09:27;;;;;;;38.20;26.63;;;9.40;99.90;;;;;;5035201;28;20063;-71
2023/10/26 06:11:53;;;;;;;37.28;26.20;;;9.30;99.90;;;;;;5053564;28;20045;-72
2023/10/26 06:14:19;;;;;;;40.00;26.25;;;9.20;99.90;;;;;;5052453;28;20056;-73
2023/10/26 06:16:45;;;;;;;40.35;25.98;;;9.20;99.90;;;;;;5067516;28;20048;-72
2023/10/26 06:19:11;;;;;;;38.70;24.85;;;9.10;99.90;;;;;;5056343;28;20119;-72
2023/10/26 06:21:38;;;;;;;38.72;26.98;;;9.10;99.90;;;;;;5059304;28;20044;-72
2023/10/26 06:24:06;;;;;;;37.20;26.42;;;9.00;99.90;;;;;;5058783;28;20321;-72
2023/10/26 06:26:32;;;;;;;36.65;25.60;;;9.00;99.90;;;;;;5074433;28;20451;-72
2023/10/26 06:28:58;;;;;;;38.15;27.15;;;9.00;99.90;;;;;;5055507;28;20053;-72
2023/10/26 06:31:24;;;;;;;39.53;25.90;;;8.90;99.90;;;;;;5059632;28;20124;-72
2023/10/26 06:33:49;;;;;;;40.33;26.88;;;9.00;99.90;;;;;;5071250;28;20119;-72
2023/10/26 06:36:15;;;;;;;36.13;25.67;;;8.90;99.90;;;;;;5051025;28;20460;-71
2023/10/26 06:38:41;;;;;;;37.08;27.08;;;8.90;99.90;;;;;;5072220;28;20042;-72
2023/10/26 06:41:08;;;;;;;39.42;26.40;;;8.90;99.90;;;;;;5070756;28;20052;-72
2023/10/26 06:43:36;;;;;;;37.30;26.65;;;9.00;99.90;;;;;;5067502;28;20453;-71
2023/10/26 06:46:02;;;;;;;41.28;27.88;;;9.00;99.90;;;;;;5064632;28;20044;-71
2023/10/26 06:48:28;;;;;;;37.78;26.88;;;9.00;99.90;;;;;;5071048;28;20036;-71
2023/10/26 06:51:01;;;;;;;43.25;28.67;;;9.00;99.90;;;;;;5071299;28;20101;-71
2023/10/26 06:53:28;;;;;;;44.50;29.63;;;9.00;99.90;;;;;;5069572;28;20127;-71
2023/10/26 06:55:54;;;;;;;49.10;31.20;;;9.00;99.90;;;;;;5067410;28;20294;-71
2023/10/26 06:58:20;;;;;;;49.50;30.25;;;9.00;99.90;;;;;;5064398;28;20047;-71
2023/10/26 07:00:49;;;;;;;56.22;31.58;;;9.10;99.90;;;;;;5063388;28;20044;-71
2023/10/26 07:03:15;;;;;;;55.60;31.70;;;9.10;99.90;;;;;;5070312;28;20056;-71
2023/10/26 07:05:41;;;;;;;63.75;32.33;;;9.10;99.90;;;;;;5070517;28;20040;-71
2023/10/26 07:08:06;;;;;;;75.10;31.58;;;9.20;99.90;;;;;;5071071;28;20040;-71
2023/10/26 07:10:32;;;;;;;301.25;38.92;;;9.20;99.90;;;;;;5070585;28;20048;-71
2023/10/26 07:12:58;;;;;;;244.07;37.10;;;9.20;99.90;;;;;;5070378;28;20068;-70
2023/10/26 07:15:24;;;;;;;155.88;34.55;;;9.20;99.90;;;;;;5071853;28;20121;-72
2023/10/26 07:17:49;;;;;;;123.65;32.83;;;9.20;99.90;;;;;;5048118;28;20044;-71
2023/10/26 07:20:15;;;;;;;136.52;30.17;;;9.30;99.90;;;;;;5070041;28;20037;-72
2023/10/26 07:22:45;;;;;;;87.88;29.25;;;9.30;99.90;;;;;;5069718;28;20063;-71
2023/10/26 07:25:13;;;;;;;61.85;28.50;;;9.30;99.90;;;;;;5049931;28;20037;-71
2023/10/26 07:27:39;;;;;;;51.63;29.05;;;9.30;99.90;;;;;;5065559;28;20513;-74
2023/10/26 07:30:06;;;;;;;42.13;27.27;;;9.30;99.90;;;;;;5059698;28;20457;-73
2023/10/26 07:32:32;;;;;;;41.20;26.45;;;9.40;99.90;;;;;;5061156;28;20055;-74
2023/10/26 07:34:58;;;;;;;41.78;26.35;;;9.40;99.90;;;;;;5066004;28;20037;-73
2023/10/26 07:37:24;;;;;;;40.90;25.52;;;9.40;99.90;;;;;;5038337;28;20052;-71
2023/10/26 07:39:50;;;;;;;40.60;26.75;;;9.40;99.90;;;;;;5052891;28;20045;-71
2023/10/26 07:42:16;;;;;;;38.63;24.50;;;9.40;99.90;;;;;;5054444;28;20564;-71
2023/10/26 07:44:41;;;;;;;35.17;23.85;;;9.40;99.90;;;;;;5051557;28;20045;-71
2023/10/26 07:47:10;;;;;;;35.97;23.80;;;9.40;99.90;;;;;;5052390;28;20099;-69
2023/10/26 07:49:36;;;;;;;37.10;24.00;;;9.40;99.90;;;;;;5060820;28;20061;-69
2023/10/26 07:52:02;;;;;;;37.40;24.73;;;9.40;99.90;;;;;;5055411;28;20101;-70
2023/10/26 07:54:27;;;;;;;40.30;25.38;;;9.50;99.90;;;;;;5054338;28;20105;-68
2023/10/26 07:56:53;;;;;;;39.25;25.40;;;9.50;99.90;;;;;;5063956;28;20047;-67
2023/10/26 07:59:19;;;;;;;45.97;25.40;;;9.50;99.90;;;;;;5067079;28;20045;-69
2023/10/26 08:01:45;;;;;;;48.88;27.67;;;9.50;99.90;;;;;;5060915;28;20045;-70
2023/10/26 08:04:10;;;;;;;42.10;26.65;;;9.50;99.90;;;;;;5067827;28;20040;-67
2023/10/26 08:06:36;;;;;;;49.97;28.58;;;9.50;99.90;;;;;;5072522;28;20048;-69
2023/10/26 08:09:02;;;;;;;45.00;27.40;;;9.50;99.90;;;;;;5073807;28;20105;-71
2023/10/26 08:11:28;;;;;;;40.53;25.50;;;9.40;99.90;;;;;;5070731;28;20052;-69
2023/10/26 08:13:53;;;;;;;37.67;22.65;;;9.50;99.90;;;;;;5068536;28;20045;-69
2023/10/26 08:16:19;;;;;;;36.55;24.85;;;9.50;99.90;;;;;;5072279;28;20585;-69
2023/10/26 08:18:45;;;;;;;36.72;23.83;;;9.50;99.90;;;;;;5071489;28;20060;-69
2023/10/26 08:21:10;;;;;;;43.03;24.67;;;9.50;99.90;;;;;;5064546;28;20371;-68
2023/10/26 08:23:36;;;;;;;45.42;24.83;;;9.50;99.90;;;;;;5064377;28;20044;-68
2023/10/26 08:26:07;;;;;;;35.90;24.25;;;9.50;99.90;;;;;;5069392;28;20041;-69
2023/10/26 08:28:33;;;;;;;35.40;23.52;;;9.50;99.90;;;;;;5059487;28;20040;-69
2023/10/26 08:31:00;;;;;;;36.65;23.63;;;9.50;99.90;;;;;;5073319;28;20051;-68
2023/10/26 08:33:28;;;;;;;35.90;24.27;;;9.60;99.90;;;;;;5073687;28;20101;-67
2023/10/26 08:35:53;;;;;;;36.67;23.67;;;9.60;99.90;;;;;;5074626;28;20428;-68
2023/10/26 08:38:19;;;;;;;38.13;23.13;;;9.60;99.90;;;;;;5073637;28;20062;-68
2023/10/26 08:40:53;;;;;;;32.47;22.77;;;9.60;99.90;;;;;;5070065;28;20048;-68
2023/10/26 08:43:20;;;;;;;34.83;22.67;;;9.70;99.90;;;;;;5070711;28;20048;-69
2023/10/26 08:45:49;;;;;;;32.15;21.45;;;9.70;99.90;;;;;;5074485;28;20052;-69
2023/10/26 08:48:17;;;;;;;33.85;22.25;;;9.70;99.90;;;;;;5056276;28;20060;-68
2023/10/26 08:50:46;;;;;;;34.13;22.70;;;9.70;99.90;;;;;;5073352;28;20130;-67
2023/10/26 08:53:12;;;;;;;34.33;23.80;;;9.80;99.90;;;;;;5072980;28;20499;-67
2023/10/26 08:55:40;;;;;;;31.60;21.60;;;9.80;99.90;;;;;;5073058;28;20137;-67
2023/10/26 08:58:06;;;;;;;32.33;21.58;;;9.80;99.90;;;;;;5073070;28;20512;-70
2023/10/26 09:00:33;;;;;;;34.17;21.60;;;9.80;99.90;;;;;;5039183;28;20047;-68
2023/10/26 09:02:58;;;;;;;30.10;22.08;;;9.80;99.90;;;;;;5073570;28;20050;-67
2023/10/26 09:05:24;;;;;;;32.63;23.35;;;9.80;99.90;;;;;;5071991;28;20533;-67
2023/10/26 09:07:53;;;;;;;35.15;23.15;;;9.80;99.90;;;;;;5073537;28;20040;-66
2023/10/26 09:10:33;;;;;;;32.08;22.73;;;9.80;99.90;;;;;;5071355;28;20128;-67
2023/10/26 09:13:00;;;;;;;35.42;23.13;;;9.80;99.90;;;;;;5073321;28;20044;-65
2023/10/26 09:15:27;;;;;;;31.52;21.73;;;9.80;99.90;;;;;;5070115;28;20065;-66
2023/10/26 09:17:57;;;;;;;27.42;20.77;;;9.80;99.90;;;;;;5073395;28;20115;-66
2023/10/26 09:20:24;;;;;;;30.17;22.67;;;9.80;99.90;;;;;;5072710;28;20048;-66
2023/10/26 09:22:50;;;;;;;33.00;21.10;;;9.70;99.90;;;;;;5072711;28;20494;-65
2023/10/26 09:25:17;;;;;;;32.42;21.77;;;9.80;99.90;;;;;;5073122;28;20124;-69
2023/10/26 09:27:44;;;;;;;34.13;22.60;;;9.80;99.90;;;;;;5072079;28;20048;-68
2023/10/26 09:30:26;;;;;;;31.98;21.63;;;9.80;99.90;;;;;;5053627;28;20402;-68
2023/10/26 09:32:51;;;;;;;32.20;22.08;;;9.90;99.90;;;;;;5059438;28;20128;-70
2023/10/26 09:35:31;;;;;;;33.15;21.63;;;9.90;99.90;;;;;;5066267;28;20115;-66
2023/10/26 09:37:58;;;;;;;34.50;22.98;;;9.90;99.90;;;;;;5053021;28;20102;-65
2023/10/26 09:40:26;;;;;;;34.53;22.83;;;9.90;99.90;;;;;;5061775;28;20127;-64
2023/10/26 09:42:52;;;;;;;34.22;23.50;;;9.90;99.90;;;;;;5057440;28;20166;-66
2023/10/26 09:45:19;;;;;;;33.75;23.88;;;10.00;99.90;;;;;;5055434;28;20065;-66
2023/10/26 09:47:48;;;;;;;35.22;25.58;;;10.00;99.90;;;;;;5064065;28;20040;-66
2023/10/26 09:50:14;;;;;;;39.55;24.48;;;10.00;99.90;;;;;;5071056;28;20056;-68
2023/10/26 09:52:44;;;;;;;37.72;24.70;;;10.00;99.90;;;;;;5072312;28;20051;-68
2023/10/26 09:55:10;;;;;;;38.88;24.75;;;10.10;99.90;;;;;;5071386;28;20051;-66
2023/10/26 09:57:56;;;;;;;36.97;24.02;;;10.20;99.90;;;;;;5071117;28;20052;-69
2023/10/26 10:00:32;;;;;;;40.15;26.10;;;10.20;99.90;;;;;;5071484;28;20047;-68
2023/10/26 10:03:15;;;;;;;41.33;27.58;;;10.30;99.90;;;;;;5071662;28;20041;-67
2023/10/26 10:05:42;;;;;;;39.28;26.10;;;10.30;99.90;;;;;;5071998;28;20060;-67
2023/10/26 10:08:09;;;;;;;41.35;26.35;;;10.40;99.90;;;;;;5071813;28;20518;-67
2023/10/26 10:10:35;;;;;;;40.05;26.73;;;10.40;99.90;;;;;;5070129;28;20044;-67
2023/10/26 10:13:02;;;;;;;42.03;27.33;;;10.40;99.90;;;;;;5072398;28;20042;-66
2023/10/26 10:15:39;;;;;;;37.65;26.35;;;10.50;99.90;;;;;;5071549;28;20059;-66
2023/10/26 10:18:06;;;;;;;40.55;26.58;;;10.50;99.90;;;;;;5054990;28;20044;-66
2023/10/26 10:20:36;;;;;;;32.78;23.48;;;10.60;99.90;;;;;;5071043;28;20048;-66
2023/10/26 10:23:03;;;;;;;37.97;25.55;;;10.60;99.90;;;;;;5071252;28;20048;-68
2023/10/26 10:25:49;;;;;;;35.15;24.90;;;10.60;99.90;;;;;;5070886;28;20045;-68
2023/10/26 10:28:15;;;;;;;37.20;25.77;;;10.70;99.90;;;;;;5043471;28;20053;-66
2023/10/26 10:30:57;;;;;;;37.25;24.92;;;10.60;99.90;;;;;;5068368;28;20091;-66
2023/10/26 10:33:28;;;;;;;37.97;24.80;;;10.60;99.90;;;;;;5052673;28;20083;-67
2023/10/26 10:36:05;;;;;;;38.45;25.92;;;10.60;99.90;;;;;;5057928;28;20131;-67
2023/10/26 10:38:32;;;;;;;39.72;25.80;;;10.70;99.90;;;;;;5061960;28;20343;-67
2023/10/26 10:41:01;;;;;;;35.78;25.45;;;10.70;99.90;;;;;;5066442;28;20044;-66
2023/10/26 10:43:43;;;;;;;36.35;25.60;;;10.70;99.90;;;;;;5064735;28;20048;-67
2023/10/26 10:46:18;;;;;;;39.50;26.95;;;10.80;99.90;;;;;;5066415;28;20055;-67
2023/10/26 10:49:03;;;;;;;36.25;26.05;;;10.80;99.90;;;;;;5070829;28;20101;-67
2023/10/26 10:51:32;;;;;;;;;;;10.80;99.90;;;;;;5066672;28;20052;-67
2023/10/26 10:53:59;;;;;;;39.88;27.00;;;10.80;99.90;;;;;;5055515;28;20369;-67
2023/10/26 10:56:25;;;;;;;33.78;25.52;;;10.80;99.90;;;;;;5070571;28;20403;-67
2023/10/26 10:58:56;;;;;;;38.63;26.70;;;10.80;99.90;;;;;;5071274;28;20068;-67
2023/10/26 11:01:22;;;;;;;41.47;27.05;;;10.80;99.90;;;;;;5061548;28;20052;-69
2023/10/26 11:03:48;;;;;;;39.75;27.17;;;10.80;99.90;;;;;;5066402;28;20072;-67
2023/10/26 11:06:21;;;;;;;37.28;24.27;;;10.80;99.90;;;;;;5066246;28;20391;-67
2023/10/26 11:08:47;;;;;;;37.60;26.38;;;10.80;99.90;;;;;;5067936;28;20046;-67
2023/10/26 11:11:26;;;;;;;34.70;25.88;;;10.80;99.90;;;;;;5052043;28;20046;-67
2023/10/26 11:14:09;;;;;;;38.95;26.23;;;10.80;99.90;;;;;;5068773;28;20036;-67
2023/10/26 11:16:38;;;;;;;37.58;26.73;;;10.70;99.90;;;;;;5063755;28;20433;-68
2023/10/26 11:19:04;;;;;;;36.88;26.00;;;10.70;99.90;;;;;;5065214;28;20044;-67
2023/10/26 11:21:30;;;;;;;41.33;28.63;;;10.60;99.90;;;;;;5069003;28;20045;-67
2023/10/26 11:23:56;;;;;;;40.25;28.13;;;10.70;99.90;;;;;;5070976;28;20098;-67
2023/10/26 11:26:21;;;;;;;40.33;27.70;;;10.70;99.90;;;;;;5065339;28;20052;-67
2023/10/26 11:28:47;;;;;;;35.60;26.15;;;10.70;99.90;;;;;;5063362;28;20043;-67
2023/10/26 11:31:13;;;;;;;40.88;26.88;;;10.70;99.90;;;;;;5070190;28;20052;-66
2023/10/26 11:33:39;;;;;;;40.03;28.25;;;10.70;99.90;;;;;;5061880;28;20328;-67
2023/10/26 11:36:09;;;;;;;45.15;29.17;;;10.80;99.90;;;;;;5056530;28;20041;-66
2023/10/26 11:38:36;;;;;;;44.20;27.95;;;10.70;99.90;;;;;;5066240;28;20048;-66
2023/10/26 11:41:02;;;;;;;35.60;24.75;;;10.80;99.90;;;;;;5076284;28;20048;-66
2023/10/26 11:43:32;;;;;;;32.58;24.80;;;10.80;99.90;;;;;;5086890;28;20044;-67
2023/10/26 11:45:59;;;;;;;38.25;25.23;;;10.70;99.90;;;;;;5066659;28;20179;-66
2023/10/26 11:48:29;;;;;;;39.00;26.48;;;10.70;99.90;;;;;;5087615;28;20093;-69
2023/10/26 11:50:55;;;;;;;35.13;26.80;;;10.80;99.90;;;;;;5087047;28;20044;-66
2023/10/26 11:53:24;;;;;;;33.15;20.88;;;10.80;99.90;;;;;;5083311;28;20101;-66
2023/10/26 11:55:50;;;;;;;36.13;24.77;;;10.80;99.90;;;;;;5085478;28;20036;-67
2023/10/26 11:58:17;;;;;;;36.33;26.20;;;10.80;99.90;;;;;;5077516;28;20445;-69
2023/10/26 12:00:43;;;;;;;38.30;26.10;;;10.80;99.90;;;;;;5070888;28;20048;-68
2023/10/26 12:03:09;;;;;;;40.85;25.27;;;10.80;99.90;;;;;;5070995;28;20398;-67
2023/10/26 12:05:34;;;;;;;38.47;25.52;;;10.80;99.90;;;;;;5071920;28;20032;-69
2023/10/26 12:08:01;;;;;;;40.03;26.60;;;10.80;99.90;;;;;;5070877;28;20047;-68
2023/10/26 12:10:26;;;;;;;38.13;24.15;;;10.80;99.90;;;;;;5068134;28;20044;-68
2023/10/26 12:12:53;;;;;;;39.15;25.17;;;10.80;99.90;;;;;;5070445;28;20046;-68
2023/10/26 12:15:20;;;;;;;38.50;23.63;;;10.80;99.90;;;;;;5062291;28;20061;-69
2023/10/26 12:17:47;;;;;;;34.55;24.33;;;10.80;99.90;;;;;;5062090;28;20513;-68
2023/10/26 12:20:14;;;;;;;37.30;24.60;;;10.80;99.90;;;;;;5067594;28;20102;-68
2023/10/26 12:22:40;;;;;;;39.13;24.90;;;10.70;99.90;;;;;;5070920;28;20417;-67
2023/10/26 12:25:07;;;;;;;41.45;25.38;;;10.70;99.90;;;;;;5063639;28;20428;-68
2023/10/26 12:27:34;;;;;;;36.33;25.08;;;10.80;99.90;;;;;;5069199;28;20040;-68
2023/10/26 12:30:00;;;;;;;40.13;25.83;;;10.80;99.90;;;;;;5057530;28;20457;-68
2023/10/26 12:32:26;;;;;;;40.20;24.52;;;10.80;99.90;;;;;;5056667;28;20132;-68